sensor_id;sensor_type;location;lat;lon;timestamp;pressure;altitude;pressure_sealevel;temperature;humidity
53546;BME280;39432;51.902;10.844;2023-07-31T00:01:40;99062.44;;;17.75;100.00
53546;BME280;39432;51.902;10.844;2023-07-31T00:04:10;99057.13;;;17.96;100.00
53546;BME280;39432;51.902;10.844;2023-07-31T00:06:40;99053.25;;;17.97;100.00
53546;BME280;39432;51.902;10.844;2023-07-31T00:09:10;99051.53;;;17.79;100.00
53546;BME280;39432;51.902;10.844;2023-07-31T00:11:40;99043.91;;;17.53;100.00
53546;BME280;39432;51.902;10.844;2023-07-31T00:14:10;99046.13;;;17.74;100.00
53546;BME280;39432;51.902;10.844;2023-07-31T00:16:43;99044.88;;;17.57;100.00
53546;BME280;39432;51.902;10.844;2023-07-31T00:19:15;99052.88;;;17.90;100.00
53546;BME280;39432;51.902;10.844;2023-07-31T00:21:45;99036.16;;;18.04;100.00
53546;BME280;39432;51.902;10.844;2023-07-31T00:24:18;99047.16;;;17.55;100.00
53546;BME280;39432;51.902;10.844;2023-07-31T00:26:48;99049.72;;;17.21;100.00
53546;BME280;39432;51.902;10.844;2023-07-31T00:29:18;99047.06;;;17.38;100.00
53546;BME280;39432;51.902;10.844;2023-07-31T00:31:50;99047.56;;;17.18;100.00
53546;BME280;39432;51.902;10.844;2023-07-31T00:34:20;99046.97;;;17.52;100.00
53546;BME280;39432;51.902;10.844;2023-07-31T00:36:50;99045.59;;;17.09;100.00
53546;BME280;39432;51.902;10.844;2023-07-31T00:39:20;99037.19;;;17.77;100.00
53546;BME280;39432;51.902;10.844;2023-07-31T00:41:50;99034.09;;;17.47;100.00
53546;BME280;39432;51.902;10.844;2023-07-31T00:44:21;99028.56;;;17.16;100.00
53546;BME280;39432;51.902;10.844;2023-07-31T00:46:54;99004.72;;;17.29;100.00
53546;BME280;39432;51.902;10.844;2023-07-31T00:49:25;99011.84;;;16.99;100.00
53546;BME280;39432;51.902;10.844;2023-07-31T00:51:56;99010.88;;;17.26;100.00
53546;BME280;39432;51.902;10.844;2023-07-31T00:54:26;99005.28;;;17.17;100.00
53546;BME280;39432;51.902;10.844;2023-07-31T00:56:57;99006.38;;;17.07;100.00
53546;BME280;39432;51.902;10.844;2023-07-31T00:59:28;99005.34;;;17.26;100.00
53546;BME280;39432;51.902;10.844;2023-07-31T01:02:00;98995.78;;;17.32;100.00
53546;BME280;39432;51.902;10.844;2023-07-31T01:04:31;98983.00;;;17.76;100.00
53546;BME280;39432;51.902;10.844;2023-07-31T01:07:04;98971.84;;;18.15;100.00
53546;BME280;39432;51.902;10.844;2023-07-31T01:09:44;98964.28;;;17.81;100.00
53546;BME280;39432;51.902;10.844;2023-07-31T01:12:16;98978.53;;;17.66;100.00
53546;BME280;39432;51.902;10.844;2023-07-31T01:15:02;98970.25;;;17.35;100.00
53546;BME280;39432;51.902;10.844;2023-07-31T01:17:36;98977.84;;;17.60;100.00
53546;BME280;39432;51.902;10.844;2023-07-31T01:20:11;98974.25;;;17.20;100.00
53546;BME280;39432;51.902;10.844;2023-07-31T01:22:58;98983.38;;;17.21;100.00
53546;BME280;39432;51.902;10.844;2023-07-31T01:25:51;98981.91;;;17.54;100.00
53546;BME280;39432;51.902;10.844;2023-07-31T01:28:36;98967.53;;;17.12;100.00
53546;BME280;39432;51.902;10.844;2023-07-31T01:31:11;98965.81;;;16.94;100.00
53546;BME280;39432;51.902;10.844;2023-07-31T01:33:42;98980.44;;;16.72;100.00
53546;BME280;39432;51.902;10.844;2023-07-31T01:36:12;98979.75;;;16.89;100.00
53546;BME280;39432;51.902;10.844;2023-07-31T01:38:43;98987.66;;;17.04;100.00
53546;BME280;39432;51.902;10.844;2023-07-31T01:41:16;98984.41;;;17.33;100.00
53546;BME280;39432;51.902;10.844;2023-07-31T01:43:46;98974.69;;;17.13;100.00
53546;BME280;39432;51.902;10.844;2023-07-31T01:46:16;98986.13;;;17.21;100.00
53546;BME280;39432;51.902;10.844;2023-07-31T01:48:46;98982.38;;;16.94;100.00
53546;BME280;39432;51.902;10.844;2023-07-31T01:51:16;98994.72;;;16.88;100.00
53546;BME280;39432;51.902;10.844;2023-07-31T01:53:46;98997.75;;;16.86;100.00
53546;BME280;39432;51.902;10.844;2023-07-31T01:56:19;98993.19;;;17.04;100.00
53546;BME280;39432;51.902;10.844;2023-07-31T01:58:49;98998.63;;;17.18;100.00
53546;BME280;39432;51.902;10.844;2023-07-31T02:01:19;98999.97;;;16.98;100.00
53546;BME280;39432;51.902;10.844;2023-07-31T02:03:49;99003.94;;;17.37;100.00
53546;BME280;39432;51.902;10.844;2023-07-31T02:06:22;98993.31;;;17.93;100.00
53546;BME280;39432;51.902;10.844;2023-07-31T02:08:52;98966.31;;;18.15;100.00
53546;BME280;39432;51.902;10.844;2023-07-31T02:11:25;98970.03;;;17.62;100.00
53546;BME280;39432;51.902;10.844;2023-07-31T02:13:55;98954.88;;;17.91;100.00
53546;BME280;39432;51.902;10.844;2023-07-31T02:16:25;98966.31;;;17.67;100.00
53546;BME280;39432;51.902;10.844;2023-07-31T02:18:55;98953.06;;;17.86;100.00
53546;BME280;39432;51.902;10.844;2023-07-31T02:21:25;98953.44;;;17.62;100.00
53546;BME280;39432;51.902;10.844;2023-07-31T02:23:55;98953.56;;;17.18;100.00
53546;BME280;39432;51.902;10.844;2023-07-31T02:26:28;98959.16;;;16.73;100.00
53546;BME280;39432;51.902;10.844;2023-07-31T02:28:58;98968.81;;;16.84;100.00
53546;BME280;39432;51.902;10.844;2023-07-31T02:31:28;98968.53;;;17.17;100.00
53546;BME280;39432;51.902;10.844;2023-07-31T02:33:58;98963.53;;;16.96;100.00
53546;BME280;39432;51.902;10.844;2023-07-31T02:36:28;98972.19;;;17.26;100.00
53546;BME280;39432;51.902;10.844;2023-07-31T02:38:58;98963.53;;;16.96;100.00
53546;BME280;39432;51.902;10.844;2023-07-31T02:41:28;98968.56;;;16.94;100.00
53546;BME280;39432;51.902;10.844;2023-07-31T02:43:58;98969.50;;;16.90;100.00
53546;BME280;39432;51.902;10.844;2023-07-31T02:46:28;98961.78;;;17.00;100.00
53546;BME280;39432;51.902;10.844;2023-07-31T02:48:59;98959.00;;;17.00;100.00
53546;BME280;39432;51.902;10.844;2023-07-31T02:51:28;98950.50;;;16.88;100.00
53546;BME280;39432;51.902;10.844;2023-07-31T02:53:58;98947.63;;;16.71;100.00
53546;BME280;39432;51.902;10.844;2023-07-31T02:56:31;98944.44;;;16.64;100.00
53546;BME280;39432;51.902;10.844;2023-07-31T02:59:01;98940.63;;;16.96;100.00
53546;BME280;39432;51.902;10.844;2023-07-31T03:01:31;98938.88;;;16.77;100.00
53546;BME280;39432;51.902;10.844;2023-07-31T03:04:01;98943.16;;;16.83;100.00
53546;BME280;39432;51.902;10.844;2023-07-31T03:06:31;98942.88;;;17.25;100.00
53546;BME280;39432;51.902;10.844;2023-07-31T03:09:01;98924.78;;;17.50;100.00
53546;BME280;39432;51.902;10.844;2023-07-31T03:11:34;98921.41;;;17.70;100.00
53546;BME280;39432;51.902;10.844;2023-07-31T03:14:03;98906.22;;;17.50;100.00
53546;BME280;39432;51.902;10.844;2023-07-31T03:16:33;98915.22;;;17.25;100.00
53546;BME280;39432;51.902;10.844;2023-07-31T03:19:04;98916.88;;;17.26;100.00
53546;BME280;39432;51.902;10.844;2023-07-31T03:21:34;98921.22;;;17.18;100.00
53546;BME280;39432;51.902;10.844;2023-07-31T03:24:04;98910.41;;;17.39;100.00
53546;BME280;39432;51.902;10.844;2023-07-31T03:26:37;98902.78;;;17.45;100.00
53546;BME280;39432;51.902;10.844;2023-07-31T03:29:08;98899.53;;;17.43;100.00
53546;BME280;39432;51.902;10.844;2023-07-31T03:31:38;98899.84;;;17.98;100.00
53546;BME280;39432;51.902;10.844;2023-07-31T03:34:08;98885.53;;;18.13;100.00
53546;BME280;39432;51.902;10.844;2023-07-31T03:36:38;98880.63;;;17.93;100.00
53546;BME280;39432;51.902;10.844;2023-07-31T03:39:09;98893.88;;;17.56;100.00
53546;BME280;39432;51.902;10.844;2023-07-31T03:41:42;98901.53;;;17.68;100.00
53546;BME280;39432;51.902;10.844;2023-07-31T03:44:12;98904.59;;;17.49;100.00
53546;BME280;39432;51.902;10.844;2023-07-31T03:46:42;98921.94;;;17.72;100.00
53546;BME280;39432;51.902;10.844;2023-07-31T03:49:12;98914.47;;;17.90;100.00
53546;BME280;39432;51.902;10.844;2023-07-31T03:51:42;98899.19;;;18.01;100.00
53546;BME280;39432;51.902;10.844;2023-07-31T03:54:12;98898.53;;;18.04;100.00
53546;BME280;39432;51.902;10.844;2023-07-31T03:56:45;98896.91;;;18.29;100.00
53546;BME280;39432;51.902;10.844;2023-07-31T03:59:15;98888.47;;;18.08;100.00
53546;BME280;39432;51.902;10.844;2023-07-31T04:01:45;98891.38;;;18.03;100.00
53546;BME280;39432;51.902;10.844;2023-07-31T04:04:15;98888.44;;;17.91;100.00
53546;BME280;39432;51.902;10.844;2023-07-31T04:21:14;98917.16;;;17.16;100.00
53546;BME280;39432;51.902;10.844;2023-07-31T04:23:45;98927.56;;;17.19;100.00
53546;BME280;39432;51.902;10.844;2023-07-31T04:26:14;98927.56;;;17.19;100.00
53546;BME280;39432;51.902;10.844;2023-07-31T04:28:44;98928.00;;;16.81;100.00
53546;BME280;39432;51.902;10.844;2023-07-31T04:31:14;98937.13;;;16.81;100.00
53546;BME280;39432;51.902;10.844;2023-07-31T04:33:45;98945.97;;;16.92;100.00
53546;BME280;39432;51.902;10.844;2023-07-31T04:36:17;98945.69;;;17.33;100.00
53546;BME280;39432;51.902;10.844;2023-07-31T04:38:47;98933.03;;;17.41;100.00
53546;BME280;39432;51.902;10.844;2023-07-31T04:41:17;98935.78;;;17.41;100.00
53546;BME280;39432;51.902;10.844;2023-07-31T04:43:48;98927.41;;;17.63;100.00
53546;BME280;39432;51.902;10.844;2023-07-31T04:46:19;98930.13;;;17.46;100.00
53546;BME280;39432;51.902;10.844;2023-07-31T04:48:48;98937.00;;;17.18;100.00
53546;BME280;39432;51.902;10.844;2023-07-31T04:51:21;98937.88;;;17.35;100.00
53546;BME280;39432;51.902;10.844;2023-07-31T04:53:52;98943.41;;;17.35;100.00
53546;BME280;39432;51.902;10.844;2023-07-31T04:56:22;98947.28;;;17.26;100.00
53546;BME280;39432;51.902;10.844;2023-07-31T04:58:52;98953.94;;;17.25;100.00
53546;BME280;39432;51.902;10.844;2023-07-31T05:01:22;98950.94;;;17.44;100.00
53546;BME280;39432;51.902;10.844;2023-07-31T05:03:52;98955.94;;;17.33;100.00
53546;BME280;39432;51.902;10.844;2023-07-31T05:06:24;98957.34;;;17.61;100.00
53546;BME280;39432;51.902;10.844;2023-07-31T05:08:54;98948.28;;;17.70;100.00
53546;BME280;39432;51.902;10.844;2023-07-31T05:11:24;98948.19;;;17.52;100.00
53546;BME280;39432;51.902;10.844;2023-07-31T05:13:54;98955.25;;;17.67;100.00
53546;BME280;39432;51.902;10.844;2023-07-31T05:16:24;98948.63;;;17.77;100.00
53546;BME280;39432;51.902;10.844;2023-07-31T05:18:56;98953.00;;;17.69;100.00
53546;BME280;39432;51.902;10.844;2023-07-31T05:21:28;98958.03;;;17.27;100.00
53546;BME280;39432;51.902;10.844;2023-07-31T05:23:58;98960.56;;;17.95;100.00
53546;BME280;39432;51.902;10.844;2023-07-31T05:26:28;98947.16;;;17.79;100.00
53546;BME280;39432;51.902;10.844;2023-07-31T05:28:58;98951.88;;;17.79;100.00
53546;BME280;39432;51.902;10.844;2023-07-31T05:31:28;98945.91;;;17.94;100.00
53546;BME280;39432;51.902;10.844;2023-07-31T05:33:59;98939.25;;;18.12;100.00
53546;BME280;39432;51.902;10.844;2023-07-31T05:36:32;98935.50;;;17.51;100.00
53546;BME280;39432;51.902;10.844;2023-07-31T05:39:02;98928.25;;;17.64;100.00
53546;BME280;39432;51.902;10.844;2023-07-31T05:41:35;98941.41;;;17.67;100.00
53546;BME280;39432;51.902;10.844;2023-07-31T05:44:05;98935.84;;;18.15;100.00
53546;BME280;39432;51.902;10.844;2023-07-31T05:46:35;98926.91;;;18.36;100.00
53546;BME280;39432;51.902;10.844;2023-07-31T05:49:07;98903.69;;;17.80;100.00
53546;BME280;39432;51.902;10.844;2023-07-31T05:51:39;98920.09;;;17.59;100.00
53546;BME280;39432;51.902;10.844;2023-07-31T05:54:09;98933.91;;;17.19;100.00
53546;BME280;39432;51.902;10.844;2023-07-31T05:56:39;98940.34;;;17.06;100.00
53546;BME280;39432;51.902;10.844;2023-07-31T05:59:11;98938.25;;;17.11;100.00
53546;BME280;39432;51.902;10.844;2023-07-31T06:01:42;98942.31;;;17.14;100.00
53546;BME280;39432;51.902;10.844;2023-07-31T06:04:12;98933.69;;;17.47;100.00
53546;BME280;39432;51.902;10.844;2023-07-31T06:06:44;98924.66;;;17.24;100.00
53546;BME280;39432;51.902;10.844;2023-07-31T06:09:15;98940.91;;;17.17;100.00
53546;BME280;39432;51.902;10.844;2023-07-31T06:11:44;98938.47;;;17.63;100.00
53546;BME280;39432;51.902;10.844;2023-07-31T06:14:15;98917.94;;;17.47;100.00
53546;BME280;39432;51.902;10.844;2023-07-31T06:16:44;98914.50;;;17.50;100.00
53546;BME280;39432;51.902;10.844;2023-07-31T06:19:14;98917.19;;;17.64;100.00
53546;BME280;39432;51.902;10.844;2023-07-31T06:21:47;98911.53;;;17.78;100.00
53546;BME280;39432;51.902;10.844;2023-07-31T06:24:17;98905.38;;;17.98;100.00
53546;BME280;39432;51.902;10.844;2023-07-31T06:26:48;98901.78;;;17.89;100.00
53546;BME280;39432;51.902;10.844;2023-07-31T06:29:18;98903.75;;;17.97;100.00
53546;BME280;39432;51.902;10.844;2023-07-31T06:31:48;98898.53;;;18.13;100.00
53546;BME280;39432;51.902;10.844;2023-07-31T06:34:18;98895.25;;;17.85;100.00
53546;BME280;39432;51.902;10.844;2023-07-31T06:36:51;98897.38;;;17.88;100.00
53546;BME280;39432;51.902;10.844;2023-07-31T06:39:21;98901.44;;;18.51;100.00
53546;BME280;39432;51.902;10.844;2023-07-31T06:41:50;98890.53;;;18.63;100.00
53546;BME280;39432;51.902;10.844;2023-07-31T06:44:20;98887.88;;;18.93;100.00
53546;BME280;39432;51.902;10.844;2023-07-31T06:46:50;98872.25;;;19.27;100.00
53546;BME280;39432;51.902;10.844;2023-07-31T06:49:20;98870.56;;;19.05;100.00
53546;BME280;39432;51.902;10.844;2023-07-31T06:51:53;98858.72;;;19.25;100.00
53546;BME280;39432;51.902;10.844;2023-07-31T06:54:23;98854.78;;;18.88;100.00
53546;BME280;39432;51.902;10.844;2023-07-31T06:56:53;98863.84;;;19.14;100.00
53546;BME280;39432;51.902;10.844;2023-07-31T06:59:23;98859.91;;;19.15;100.00
53546;BME280;39432;51.902;10.844;2023-07-31T07:01:53;98862.94;;;18.84;100.00
53546;BME280;39432;51.902;10.844;2023-07-31T07:04:23;98858.09;;;18.64;100.00
53546;BME280;39432;51.902;10.844;2023-07-31T07:06:56;98865.25;;;18.56;100.00
53546;BME280;39432;51.902;10.844;2023-07-31T07:09:26;98865.66;;;18.20;100.00
53546;BME280;39432;51.902;10.844;2023-07-31T07:11:56;98875.25;;;18.23;100.00
53546;BME280;39432;51.902;10.844;2023-07-31T07:14:26;98871.50;;;17.93;100.00
53546;BME280;39432;51.902;10.844;2023-07-31T07:16:56;98870.84;;;18.04;100.00
53546;BME280;39432;51.902;10.844;2023-07-31T07:19:26;98860.09;;;17.94;100.00
53546;BME280;39432;51.902;10.844;2023-07-31T07:21:59;98869.22;;;17.86;100.00
53546;BME280;39432;51.902;10.844;2023-07-31T07:24:29;98875.41;;;18.17;100.00
53546;BME280;39432;51.902;10.844;2023-07-31T07:26:59;98865.59;;;18.81;100.00
53546;BME280;39432;51.902;10.844;2023-07-31T07:29:29;98847.81;;;18.64;100.00
53546;BME280;39432;51.902;10.844;2023-07-31T07:32:00;98856.78;;;18.79;100.00
53546;BME280;39432;51.902;10.844;2023-07-31T07:34:30;98845.59;;;18.40;100.00
53546;BME280;39432;51.902;10.844;2023-07-31T07:37:03;98844.75;;;18.40;100.00
53546;BME280;39432;51.902;10.844;2023-07-31T07:39:33;98831.06;;;18.52;100.00
53546;BME280;39432;51.902;10.844;2023-07-31T07:42:03;98834.78;;;18.65;100.00
53546;BME280;39432;51.902;10.844;2023-07-31T07:44:33;98834.13;;;18.77;100.00
53546;BME280;39432;51.902;10.844;2023-07-31T07:47:04;98824.50;;;18.65;100.00
53546;BME280;39432;51.902;10.844;2023-07-31T07:49:35;98830.19;;;19.25;100.00
53546;BME280;39432;51.902;10.844;2023-07-31T07:52:08;98829.81;;;19.35;100.00
53546;BME280;39432;51.902;10.844;2023-07-31T07:54:38;98811.69;;;19.67;100.00
53546;BME280;39432;51.902;10.844;2023-07-31T07:57:08;98818.09;;;19.50;100.00
53546;BME280;39432;51.902;10.844;2023-07-31T07:59:38;98807.00;;;19.50;100.00
53546;BME280;39432;51.902;10.844;2023-07-31T08:02:08;98811.81;;;19.41;100.00
53546;BME280;39432;51.902;10.844;2023-07-31T08:04:38;98804.97;;;19.68;100.00
53546;BME280;39432;51.902;10.844;2023-07-31T08:07:11;98800.81;;;19.24;100.00
53546;BME280;39432;51.902;10.844;2023-07-31T08:09:41;98801.69;;;19.45;100.00
53546;BME280;39432;51.902;10.844;2023-07-31T08:12:11;98804.28;;;20.13;100.00
53546;BME280;39432;51.902;10.844;2023-07-31T08:14:41;98794.59;;;20.64;100.00
53546;BME280;39432;51.902;10.844;2023-07-31T08:17:11;98795.16;;;20.24;100.00
53546;BME280;39432;51.902;10.844;2023-07-31T08:19:41;98792.19;;;20.30;100.00
53546;BME280;39432;51.902;10.844;2023-07-31T08:22:14;98801.09;;;20.02;100.00
53546;BME280;39432;51.902;10.844;2023-07-31T08:24:44;98800.28;;;19.81;100.00
53546;BME280;39432;51.902;10.844;2023-07-31T08:27:14;98805.59;;;19.73;100.00
53546;BME280;39432;51.902;10.844;2023-07-31T08:29:44;98789.78;;;19.65;100.00
53546;BME280;39432;51.902;10.844;2023-07-31T08:32:14;98802.50;;;19.66;100.00
53546;BME280;39432;51.902;10.844;2023-07-31T08:34:44;98796.97;;;19.66;100.00
53546;BME280;39432;51.902;10.844;2023-07-31T08:37:17;98793.41;;;19.36;100.00
53546;BME280;39432;51.902;10.844;2023-07-31T08:39:47;98801.94;;;19.22;100.00
53546;BME280;39432;51.902;10.844;2023-07-31T08:42:17;98815.13;;;19.55;100.00
53546;BME280;39432;51.902;10.844;2023-07-31T08:44:47;98812.09;;;19.48;100.00
53546;BME280;39432;51.902;10.844;2023-07-31T08:47:19;98799.78;;;18.99;100.00
53546;BME280;39432;51.902;10.844;2023-07-31T08:49:51;98820.25;;;19.15;100.00
53546;BME280;39432;51.902;10.844;2023-07-31T08:52:25;98815.63;;;19.57;100.00
53546;BME280;39432;51.902;10.844;2023-07-31T08:54:55;98817.22;;;19.37;100.00
53546;BME280;39432;51.902;10.844;2023-07-31T08:57:26;98808.97;;;19.49;100.00
53546;BME280;39432;51.902;10.844;2023-07-31T08:59:57;98809.50;;;19.72;100.00
53546;BME280;39432;51.902;10.844;2023-07-31T09:02:33;98810.38;;;19.64;100.00
53546;BME280;39432;51.902;10.844;2023-07-31T09:05:05;98798.88;;;19.95;100.00
53546;BME280;39432;51.902;10.844;2023-07-31T09:07:40;98791.81;;;19.56;100.00
53546;BME280;39432;51.902;10.844;2023-07-31T09:10:13;98795.03;;;19.58;100.00
53546;BME280;39432;51.902;10.844;2023-07-31T09:12:44;98783.78;;;19.55;100.00
53546;BME280;39432;51.902;10.844;2023-07-31T09:15:15;98783.03;;;19.96;100.00
53546;BME280;39432;51.902;10.844;2023-07-31T09:18:02;98779.75;;;19.94;100.00
53546;BME280;39432;51.902;10.844;2023-07-31T09:20:33;98783.69;;;19.93;100.00
53546;BME280;39432;51.902;10.844;2023-07-31T09:23:08;98781.41;;;19.74;100.00
53546;BME280;39432;51.902;10.844;2023-07-31T09:25:40;98773.59;;;20.21;100.00
53546;BME280;39432;51.902;10.844;2023-07-31T09:28:12;98774.31;;;20.18;100.00
53546;BME280;39432;51.902;10.844;2023-07-31T09:30:45;98770.03;;;20.54;100.00
53546;BME280;39432;51.902;10.844;2023-07-31T09:33:16;98754.09;;;21.00;100.00
53546;BME280;39432;51.902;10.844;2023-07-31T09:35:47;98759.19;;;20.61;100.00
53546;BME280;39432;51.902;10.844;2023-07-31T09:38:20;98751.66;;;19.95;100.00
53546;BME280;39432;51.902;10.844;2023-07-31T09:40:50;98751.63;;;20.16;100.00
53546;BME280;39432;51.902;10.844;2023-07-31T09:43:21;98755.47;;;20.24;100.00
53546;BME280;39432;51.902;10.844;2023-07-31T09:45:55;98741.78;;;19.86;100.00
53546;BME280;39432;51.902;10.844;2023-07-31T09:48:25;98748.00;;;19.83;100.00
53546;BME280;39432;51.902;10.844;2023-07-31T09:51:04;98750.22;;;19.47;100.00
53546;BME280;39432;51.902;10.844;2023-07-31T09:53:37;98751.19;;;19.52;100.00
53546;BME280;39432;51.902;10.844;2023-07-31T09:56:07;98746.44;;;19.94;100.00
53546;BME280;39432;51.902;10.844;2023-07-31T09:58:38;98744.44;;;19.61;100.00
53546;BME280;39432;51.902;10.844;2023-07-31T10:01:08;98735.47;;;19.97;100.00
53546;BME280;39432;51.902;10.844;2023-07-31T10:03:39;98719.69;;;20.22;100.00
53546;BME280;39432;51.902;10.844;2023-07-31T10:06:09;98729.34;;;20.04;100.00
53546;BME280;39432;51.902;10.844;2023-07-31T10:08:43;98731.41;;;20.28;100.00
53546;BME280;39432;51.902;10.844;2023-07-31T10:11:16;98735.63;;;19.80;100.00
53546;BME280;39432;51.902;10.844;2023-07-31T10:13:47;98744.75;;;20.02;100.00
53546;BME280;39432;51.902;10.844;2023-07-31T10:16:17;98753.94;;;20.26;100.00
53546;BME280;39432;51.902;10.844;2023-07-31T10:18:48;98746.09;;;20.29;100.00
53546;BME280;39432;51.902;10.844;2023-07-31T10:21:19;98744.00;;;21.08;100.00
53546;BME280;39432;51.902;10.844;2023-07-31T10:23:52;98737.84;;;21.14;100.00
53546;BME280;39432;51.902;10.844;2023-07-31T10:26:23;98728.25;;;22.04;100.00
53546;BME280;39432;51.902;10.844;2023-07-31T10:28:55;98724.00;;;22.39;100.00
53546;BME280;39432;51.902;10.844;2023-07-31T10:31:26;98716.50;;;21.83;100.00
53546;BME280;39432;51.902;10.844;2023-07-31T10:33:58;98707.72;;;22.41;100.00
53546;BME280;39432;51.902;10.844;2023-07-31T10:36:30;98711.41;;;22.01;100.00
53546;BME280;39432;51.902;10.844;2023-07-31T10:39:03;98702.13;;;21.41;100.00
53546;BME280;39432;51.902;10.844;2023-07-31T10:41:36;98699.09;;;22.02;100.00
53546;BME280;39432;51.902;10.844;2023-07-31T10:44:07;98712.47;;;21.68;100.00
53546;BME280;39432;51.902;10.844;2023-07-31T10:46:37;98706.50;;;21.54;100.00
53546;BME280;39432;51.902;10.844;2023-07-31T10:49:07;98699.91;;;21.74;100.00
53546;BME280;39432;51.902;10.844;2023-07-31T10:51:37;98703.16;;;22.04;100.00
53546;BME280;39432;51.902;10.844;2023-07-31T10:54:13;98691.38;;;21.95;100.00
53546;BME280;39432;51.902;10.844;2023-07-31T10:56:45;98697.13;;;22.02;100.00
53546;BME280;39432;51.902;10.844;2023-07-31T10:59:16;98685.75;;;21.79;100.00
53546;BME280;39432;51.902;10.844;2023-07-31T11:01:50;98683.19;;;21.46;100.00
53546;BME280;39432;51.902;10.844;2023-07-31T11:04:23;98697.47;;;21.45;100.00
53546;BME280;39432;51.902;10.844;2023-07-31T11:06:58;98686.22;;;21.97;100.00
53546;BME280;39432;51.902;10.844;2023-07-31T11:09:32;98685.53;;;22.44;100.00
53546;BME280;39432;51.902;10.844;2023-07-31T11:12:03;98682.28;;;22.26;100.00
53546;BME280;39432;51.902;10.844;2023-07-31T11:14:33;98683.81;;;22.40;100.00
53546;BME280;39432;51.902;10.844;2023-07-31T11:17:06;98677.88;;;21.81;100.00
53546;BME280;39432;51.902;10.844;2023-07-31T11:19:37;98679.25;;;21.75;100.00
53546;BME280;39432;51.902;10.844;2023-07-31T11:22:08;98681.78;;;21.65;100.00
53546;BME280;39432;51.902;10.844;2023-07-31T11:24:40;98681.47;;;21.82;100.00
53546;BME280;39432;51.902;10.844;2023-07-31T11:27:12;98670.75;;;22.12;100.00
53546;BME280;39432;51.902;10.844;2023-07-31T11:29:42;98663.66;;;21.87;100.00
53546;BME280;39432;51.902;10.844;2023-07-31T11:32:16;98666.44;;;21.71;100.00
53546;BME280;39432;51.902;10.844;2023-07-31T11:34:51;98667.44;;;22.22;100.00
53546;BME280;39432;51.902;10.844;2023-07-31T11:37:22;98653.34;;;21.87;100.00
53546;BME280;39432;51.902;10.844;2023-07-31T11:40:02;98655.06;;;21.36;100.00
53546;BME280;39432;51.902;10.844;2023-07-31T11:42:32;98655.94;;;22.24;100.00
53546;BME280;39432;51.902;10.844;2023-07-31T11:45:03;98647.78;;;22.03;100.00
53546;BME280;39432;51.902;10.844;2023-07-31T11:47:34;98636.34;;;21.76;100.00
53546;BME280;39432;51.902;10.844;2023-07-31T11:50:06;98639.06;;;21.89;100.00
53546;BME280;39432;51.902;10.844;2023-07-31T11:52:39;98647.16;;;21.94;100.00
53546;BME280;39432;51.902;10.844;2023-07-31T11:55:13;98641.59;;;21.94;100.00
53546;BME280;39432;51.902;10.844;2023-07-31T11:57:45;98643.72;;;21.84;100.00
53546;BME280;39432;51.902;10.844;2023-07-31T12:00:16;98648.88;;;21.98;100.00
53546;BME280;39432;51.902;10.844;2023-07-31T12:02:46;98649.38;;;22.16;100.00
53546;BME280;39432;51.902;10.844;2023-07-31T12:05:17;98655.03;;;21.92;100.00
53546;BME280;39432;51.902;10.844;2023-07-31T12:07:49;98650.91;;;21.29;100.00
53546;BME280;39432;51.902;10.844;2023-07-31T12:10:29;98654.69;;;21.37;100.00
53546;BME280;39432;51.902;10.844;2023-07-31T12:13:01;98653.50;;;21.10;100.00
53546;BME280;39432;51.902;10.844;2023-07-31T12:15:36;98655.59;;;20.76;100.00
53546;BME280;39432;51.902;10.844;2023-07-31T12:18:08;98649.25;;;21.28;100.00
53546;BME280;39432;51.902;10.844;2023-07-31T12:20:43;98644.56;;;21.04;100.00
53546;BME280;39432;51.902;10.844;2023-07-31T12:23:14;98641.44;;;21.06;100.00
53546;BME280;39432;51.902;10.844;2023-07-31T12:25:47;98639.09;;;21.08;100.00
53546;BME280;39432;51.902;10.844;2023-07-31T12:28:22;98631.25;;;20.98;100.00
53546;BME280;39432;51.902;10.844;2023-07-31T12:30:57;98628.94;;;21.00;100.00
53546;BME280;39432;51.902;10.844;2023-07-31T12:33:31;98623.13;;;21.73;100.00
53546;BME280;39432;51.902;10.844;2023-07-31T12:36:02;98618.50;;;22.09;100.00
53546;BME280;39432;51.902;10.844;2023-07-31T12:38:33;98613.69;;;22.38;100.00
53546;BME280;39432;51.902;10.844;2023-07-31T12:41:05;98618.72;;;22.48;100.00
53546;BME280;39432;51.902;10.844;2023-07-31T12:43:36;98618.22;;;21.82;100.00
53546;BME280;39432;51.902;10.844;2023-07-31T12:46:07;98614.06;;;21.76;100.00
53546;BME280;39432;51.902;10.844;2023-07-31T12:48:38;98617.25;;;21.63;100.00
53546;BME280;39432;51.902;10.844;2023-07-31T12:51:08;98620.34;;;21.73;100.00
53546;BME280;39432;51.902;10.844;2023-07-31T12:53:38;98614.47;;;21.63;100.00
53546;BME280;39432;51.902;10.844;2023-07-31T12:56:11;98622.44;;;21.48;100.00
53546;BME280;39432;51.902;10.844;2023-07-31T12:58:41;98627.19;;;20.95;100.00
53546;BME280;39432;51.902;10.844;2023-07-31T13:01:11;98613.28;;;20.95;100.00
53546;BME280;39432;51.902;10.844;2023-07-31T13:03:41;98608.47;;;21.33;100.00
53546;BME280;39432;51.902;10.844;2023-07-31T13:06:11;98610.47;;;21.76;100.00
53546;BME280;39432;51.902;10.844;2023-07-31T13:08:41;98605.06;;;21.67;100.00
53546;BME280;39432;51.902;10.844;2023-07-31T13:11:13;98600.41;;;21.71;100.00
53546;BME280;39432;51.902;10.844;2023-07-31T13:13:43;98605.06;;;21.67;100.00
53546;BME280;39432;51.902;10.844;2023-07-31T13:16:14;98604.16;;;21.63;100.00